createdAt,value
2023-02-14T00:03:41.254Z,5.33
2023-02-14T00:08:44.874Z,5.60
2023-02-14T00:14:12.702Z,5.37
2023-02-14T00:19:15.993Z,6.00
2023-02-14T00:24:22.505Z,5.37
2023-02-14T00:29:26.865Z,5.63
2023-02-14T00:34:29.704Z,5.50
2023-02-14T00:39:31.325Z,5.53
2023-02-14T00:44:32.873Z,5.57
2023-02-14T00:49:34.579Z,5.43
2023-02-14T00:54:36.112Z,5.13
2023-02-14T00:59:38.795Z,5.87
2023-02-14T01:04:41.186Z,5.70
2023-02-14T01:09:42.815Z,5.80
2023-02-14T01:14:44.403Z,5.80
2023-02-14T01:19:46.203Z,5.20
2023-02-14T01:24:47.922Z,6.10
2023-02-14T01:29:49.559Z,5.80
2023-02-14T01:34:51.177Z,5.60
2023-02-14T01:39:52.787Z,5.80
2023-02-14T01:45:04.153Z,6.50
2023-02-14T01:50:12.845Z,5.73
2023-02-14T01:55:17.793Z,6.70
2023-02-14T02:00:39.040Z,5.73
2023-02-14T02:05:48.421Z,6.27
2023-02-14T02:10:50.829Z,7.27
2023-02-14T02:16:28.708Z,6.87
2023-02-14T02:22:12.856Z,7.13
2023-02-14T02:27:30.323Z,7.90
2023-02-14T02:32:31.940Z,7.87
2023-02-14T02:37:54.650Z,6.93
2023-02-14T02:43:14.275Z,7.03
2023-02-14T02:48:20.366Z,7.60
2023-02-14T02:53:27.553Z,7.80
2023-02-14T02:58:38.801Z,7.63
2023-02-14T03:04:00.178Z,7.67
2023-02-14T03:09:13.196Z,7.43
2023-02-14T03:14:46.599Z,8.20
2023-02-14T03:20:17.408Z,8.13
2023-02-14T03:25:43.515Z,8.20
2023-02-14T03:31:00.714Z,8.40
2023-02-14T03:36:16.734Z,8.60
2023-02-14T03:41:21.977Z,8.90
2023-02-14T03:46:31.218Z,8.60
2023-02-14T03:51:34.485Z,9.53
2023-02-14T03:56:57.639Z,9.07
2023-02-14T04:02:15.325Z,9.53
2023-02-14T04:07:19.426Z,9.40
2023-02-14T04:12:29.418Z,9.77
2023-02-14T04:17:56.744Z,9.23
2023-02-14T04:22:58.585Z,9.13
2023-02-14T04:28:00.129Z,8.60
2023-02-14T04:33:01.786Z,9.67
2023-02-14T04:38:04.038Z,10.50
2023-02-14T04:43:07.425Z,9.37
2023-02-14T04:48:09.121Z,9.67
2023-02-14T04:53:10.726Z,10.50
2023-02-14T04:58:12.265Z,10.07
2023-02-14T05:03:13.809Z,10.40
2023-02-14T05:08:15.557Z,10.97
2023-02-14T05:13:18.107Z,10.33
2023-02-14T05:18:19.746Z,11.27
2023-02-14T05:23:21.857Z,10.90
2023-02-14T05:28:23.484Z,10.97
2023-02-14T05:33:25.702Z,11.23
2023-02-14T05:38:27.390Z,11.70
2023-02-14T05:43:30.253Z,11.93
2023-02-14T05:48:32.586Z,11.97
2023-02-14T05:53:34.392Z,12.13
2023-02-14T05:58:36.112Z,11.43
2023-02-14T06:03:37.746Z,12.47
2023-02-14T06:08:39.353Z,15.25
2023-02-14T06:13:41.521Z,11.93
2023-02-14T06:18:43.173Z,12.57
2023-02-14T06:23:44.742Z,12.37
2023-02-14T06:28:46.658Z,12.37
2023-02-14T06:33:48.295Z,10.37
2023-02-14T06:38:50.480Z,10.50
2023-02-14T06:43:54.293Z,9.40
2023-02-14T06:48:55.981Z,10.43
2023-02-14T06:53:57.592Z,10.30
2023-02-14T06:59:00.265Z,11.43
2023-02-14T07:04:01.979Z,11.10
2023-02-14T07:09:04.310Z,11.67
2023-02-14T07:14:06.015Z,11.77
2023-02-14T07:19:07.851Z,12.57
2023-02-14T07:24:09.767Z,11.30
2023-02-14T07:29:12.691Z,11.70
2023-02-14T07:34:14.410Z,11.40
2023-02-14T07:39:16.092Z,10.97
2023-02-14T07:44:17.652Z,10.67
2023-02-14T07:49:19.284Z,11.07
2023-02-14T07:54:21.306Z,10.97
2023-02-14T07:59:25.653Z,11.00
2023-02-14T08:04:27.687Z,11.83
2023-02-14T08:09:29.291Z,11.30
2023-02-14T08:14:30.886Z,10.27
2023-02-14T08:19:32.615Z,10.57
2023-02-14T08:24:34.255Z,9.90
2023-02-14T08:29:35.807Z,8.83
2023-02-14T08:34:37.536Z,8.80
2023-02-14T08:39:43.251Z,8.57
2023-02-14T08:44:44.991Z,8.93
2023-02-14T08:49:46.602Z,8.93
2023-02-14T08:54:49.064Z,9.70
2023-02-14T09:00:04.598Z,8.77
2023-02-14T09:05:08.138Z,9.57
2023-02-14T09:10:10.336Z,10.23
2023-02-14T09:15:12.416Z,9.63
2023-02-14T09:20:14.970Z,10.13
2023-02-14T09:25:16.880Z,9.00
2023-02-14T09:30:18.812Z,9.30
2023-02-14T09:35:20.598Z,9.47
2023-02-14T09:40:23.557Z,8.77
2023-02-14T09:45:26.974Z,9.17
2023-02-14T09:50:30.294Z,9.50
2023-02-14T09:55:40.091Z,9.00
2023-02-14T10:01:03.369Z,9.27
2023-02-14T10:06:38.168Z,9.67
2023-02-14T10:11:40.679Z,8.90
2023-02-14T10:16:47.493Z,8.83
2023-02-14T10:21:53.788Z,8.83
2023-02-14T10:27:02.075Z,8.47
2023-02-14T10:32:04.402Z,8.73
2023-02-14T10:37:30.619Z,9.40
2023-02-14T10:42:38.262Z,8.40
2023-02-14T10:47:58.399Z,8.97
2023-02-14T10:53:25.778Z,9.27
2023-02-14T10:58:29.678Z,8.60
2023-02-14T11:03:33.414Z,8.77
2023-02-14T11:08:37.489Z,9.13
2023-02-14T11:13:40.125Z,8.80
2023-02-14T11:18:41.829Z,8.60
2023-02-14T11:23:48.963Z,8.90
2023-02-14T11:29:02.510Z,8.37
2023-02-14T11:34:07.787Z,8.67
2023-02-14T11:39:29.811Z,9.20
2023-02-14T11:44:33.315Z,8.73
2023-02-14T11:49:36.791Z,8.63
2023-02-14T11:54:41.703Z,8.27
2023-02-14T11:59:48.059Z,8.57
2023-02-14T12:04:53.284Z,8.13
2023-02-14T12:10:21.994Z,7.93
2023-02-14T12:15:23.981Z,7.97
2023-02-14T12:21:04.032Z,8.50
2023-02-14T12:26:20.309Z,7.70
2023-02-14T12:31:22.116Z,7.90
2023-02-14T12:36:56.540Z,7.60
2023-02-14T12:42:18.527Z,7.33
2023-02-14T12:47:45.327Z,7.60
2023-02-14T12:53:14.513Z,8.17
2023-02-14T12:58:29.042Z,8.03
2023-02-14T13:03:35.313Z,7.90
2023-02-14T13:09:01.375Z,7.90
2023-02-14T13:14:35.650Z,7.30
2023-02-14T13:20:09.691Z,7.83
2023-02-14T13:25:33.512Z,7.60
2023-02-14T13:30:37.176Z,7.90
2023-02-14T13:35:40.028Z,7.50
2023-02-14T13:40:42.207Z,7.43
2023-02-14T13:45:54.286Z,7.90
2023-02-14T13:50:57.939Z,7.60
2023-02-14T13:56:02.982Z,7.73
2023-02-14T14:01:30.608Z,8.30
2023-02-14T14:07:15.417Z,7.33
2023-02-14T14:12:27.126Z,7.30
2023-02-14T14:17:29.161Z,7.63
2023-02-14T14:22:30.933Z,7.13
2023-02-14T14:27:35.938Z,6.87
2023-02-14T14:32:38.840Z,6.80
2023-02-14T14:37:46.875Z,7.10
2023-02-14T14:42:49.199Z,7.83
2023-02-14T14:47:54.196Z,6.80
2023-02-14T14:53:01.956Z,7.37
2023-02-14T14:58:08.260Z,7.40
2023-02-14T15:03:09.864Z,7.37
2023-02-14T15:08:22.770Z,7.70
2023-02-14T15:13:57.539Z,7.30
2023-02-14T15:19:01.491Z,7.57
2023-02-14T15:24:03.403Z,7.20
2023-02-14T15:29:06.352Z,7.50
2023-02-14T15:34:08.162Z,7.50
2023-02-14T15:39:12.956Z,7.70
2023-02-14T15:44:22.942Z,7.73
2023-02-14T15:49:31.760Z,9.20
2023-02-14T15:54:35.970Z,7.97
2023-02-14T15:59:41.731Z,8.10
2023-02-14T16:04:43.489Z,8.10
2023-02-14T16:09:45.027Z,8.17
2023-02-14T16:15:00.985Z,7.90
2023-02-14T16:20:29.075Z,9.23
2023-02-14T16:25:31.398Z,8.43
2023-02-14T16:30:33.026Z,8.30
2023-02-14T16:35:34.596Z,9.37
2023-02-14T16:40:36.155Z,8.77
2023-02-14T16:45:37.794Z,9.27
2023-02-14T16:50:40.425Z,9.10
2023-02-14T16:55:42.056Z,9.40
2023-02-14T17:00:43.976Z,9.17
2023-02-14T17:05:45.918Z,9.13
2023-02-14T17:10:48.463Z,10.30
2023-02-14T17:15:50.821Z,10.37
2023-02-14T17:20:52.648Z,10.20
2023-02-14T17:25:55.317Z,9.60
2023-02-14T17:31:01.270Z,13.15
2023-02-14T17:36:07.276Z,10.13
2023-02-14T17:41:13.667Z,9.63
2023-02-14T17:46:18.556Z,10.53
2023-02-14T17:51:20.560Z,9.77
2023-02-14T17:56:24.029Z,10.47
2023-02-14T18:01:28.508Z,9.90
2023-02-14T18:06:31.734Z,10.10
2023-02-14T18:11:34.433Z,10.20
2023-02-14T18:16:40.256Z,10.23
2023-02-14T18:21:43.562Z,10.60
2023-02-14T18:26:45.477Z,10.83
2023-02-14T18:31:47.274Z,11.27
2023-02-14T18:36:48.915Z,11.33
2023-02-14T18:41:50.575Z,12.27
2023-02-14T18:46:52.285Z,11.97
2023-02-14T18:51:54.784Z,10.80
2023-02-14T18:56:56.423Z,11.17
2023-02-14T19:01:58.116Z,12.40
2023-02-14T19:06:59.699Z,11.03
2023-02-14T19:12:01.333Z,12.30
2023-02-14T19:17:04.394Z,12.33
2023-02-14T19:22:06.163Z,11.47
2023-02-14T19:27:07.819Z,11.70
2023-02-14T19:32:09.449Z,11.63
2023-02-14T19:37:11.043Z,11.83
2023-02-14T19:42:12.944Z,11.37
2023-02-14T19:47:28.762Z,12.03
2023-02-14T19:52:32.842Z,10.43
2023-02-14T19:57:34.497Z,11.93
2023-02-14T20:02:36.207Z,11.13
2023-02-14T20:07:37.851Z,12.40
2023-02-14T20:12:39.526Z,11.03
2023-02-14T20:17:41.617Z,12.53
2023-02-14T20:22:43.211Z,12.83
2023-02-14T20:27:44.795Z,16.63
2023-02-14T20:32:46.513Z,18.17
2023-02-14T20:37:48.031Z,13.67
2023-02-14T20:42:49.674Z,11.97
2023-02-14T20:47:52.243Z,12.03
2023-02-14T20:52:55.846Z,11.67
2023-02-14T20:58:02.288Z,12.17
2023-02-14T21:03:03.999Z,12.73
2023-02-14T21:08:05.646Z,12.40
2023-02-14T21:13:07.306Z,13.60
2023-02-14T21:18:08.938Z,12.87
2023-02-14T21:23:10.669Z,12.70
2023-02-14T21:28:12.772Z,11.77
2023-02-14T21:33:16.066Z,13.60
2023-02-14T21:38:18.175Z,13.57
2023-02-14T21:43:19.730Z,12.90
2023-02-14T21:48:39.695Z,13.43
2023-02-14T21:53:42.566Z,13.27
2023-02-14T21:58:44.174Z,12.97
2023-02-14T22:03:46.246Z,13.57
2023-02-14T22:08:53.242Z,13.17
2023-02-14T22:13:55.711Z,13.13
2023-02-14T22:18:57.591Z,13.40
2023-02-14T22:24:00.163Z,13.23
2023-02-14T22:29:02.304Z,13.47
2023-02-14T22:34:05.735Z,14.37
2023-02-14T22:39:07.535Z,15.30
2023-02-14T22:44:09.341Z,12.97
2023-02-14T22:49:11.174Z,15.77
2023-02-14T22:54:15.385Z,14.17
2023-02-14T22:59:20.235Z,13.10
2023-02-14T23:04:24.237Z,15.30
2023-02-14T23:09:26.174Z,14.60
2023-02-14T23:14:46.052Z,14.53
2023-02-14T23:20:06.630Z,14.40
2023-02-14T23:25:10.385Z,14.40
2023-02-14T23:30:15.075Z,15.90
2023-02-14T23:35:16.636Z,13.13
2023-02-14T23:40:18.230Z,14.27
2023-02-14T23:45:34.971Z,14.00
2023-02-14T23:50:36.559Z,15.27
2023-02-14T23:55:38.201Z,15.13
